Time;durP1;ratioP1;P1;durP2;ratioP2;P2;SDS_P1;SDS_P2;PMS_P1;PMS_P2;Temp;Humidity;BMP_temperature;BMP_pressure;BME280_temperature;BME280_humidity;BME280_pressure;Samples;Min_cycle;Max_cycle;Signal;HPM_P1;HPM_P2
2023/05/02 00:07:41;;;;;;;19.10;11.73;;;;;;;;;;6280464;22;20632;-89
2023/05/02 00:10:47;;;;;;;16.52;11.50;;;;;;;;;;6354463;22;20172;-93
2023/05/02 00:13:52;;;;;;;17.15;10.68;;;;;;;;;;6352765;22;20283;-91
2023/05/02 00:16:57;;;;;;;20.35;11.18;;;;;;;;;;6354031;22;20171;-92
2023/05/02 00:20:03;;;;;;;17.50;11.18;;;;;;;;;;6352837;22;20238;-93
2023/05/02 00:23:15;;;;;;;19.65;11.23;;;;;;;;;;6334324;22;20148;-91
2023/05/02 00:26:20;;;;;;;21.90;11.40;;;;;;;;;;6335400;22;20190;-92
2023/05/02 00:29:26;;;;;;;19.48;11.75;;;;;;;;;;6352395;22;20299;-91
2023/05/02 00:32:32;;;;;;;18.95;11.25;;;;;;;;;;6355174;22;20152;-93
2023/05/02 00:35:37;;;;;;;18.30;11.07;;;;;;;;;;6355319;22;20232;-91
2023/05/02 00:38:44;;;;;;;20.33;11.88;;;;;;;;;;6337901;22;20173;-93
2023/05/02 00:41:50;;;;;;;14.90;10.05;;;;;;;;;;6337402;22;20169;-94
2023/05/02 00:44:55;;;;;;;16.70;9.68;;;;;;;;;;6334976;22;20211;-93
2023/05/02 00:48:36;;;;;;;19.17;10.13;;;;;;;;;;6352822;22;20195;-91
2023/05/02 00:51:41;;;;;;;15.35;9.75;;;;;;;;;;6334561;22;20160;-92
2023/05/02 00:54:48;;;;;;;15.52;8.77;;;;;;;;;;6352510;22;20148;-91
2023/05/02 00:57:53;;;;;;;15.40;9.73;;;;;;;;;;6350142;22;20607;-91
2023/05/02 01:01:05;;;;;;;17.15;10.27;;;;;;;;;;6352948;22;20163;-92
2023/05/02 01:04:15;;;;;;;16.42;10.25;;;;;;;;;;6334889;22;20168;-92
2023/05/02 01:07:28;;;;;;;17.35;9.38;;;;;;;;;;6350776;22;20531;-92
2023/05/02 01:10:39;;;;;;;14.82;9.00;;;;;;;;;;6353296;22;20283;-92
2023/05/02 01:13:45;;;;;;;11.90;7.80;;;;;;;;;;6352434;22;20164;-90
2023/05/02 01:16:51;;;;;;;16.38;8.82;;;;;;;;;;6352230;22;20607;-92
2023/05/02 01:19:58;;;;;;;13.30;8.43;;;;;;;;;;6335493;22;20152;-92
2023/05/02 01:23:30;;;;;;;13.18;7.78;;;;;;;;;;6351645;22;20427;-89
2023/05/02 01:26:39;;;;;;;11.73;7.53;;;;;;;;;;6332352;22;20147;-90
2023/05/02 01:29:46;;;;;;;13.65;7.97;;;;;;;;;;6353277;22;20184;-92
2023/05/02 01:32:53;;;;;;;15.90;7.40;;;;;;;;;;6353159;22;20219;-92
2023/05/02 01:35:58;;;;;;;11.48;7.20;;;;;;;;;;6352690;22;20164;-88
2023/05/02 01:39:06;;;;;;;11.32;7.10;;;;;;;;;;6352083;22;20172;-91
2023/05/02 01:42:12;;;;;;;11.23;6.80;;;;;;;;;;6349786;22;20673;-88
2023/05/02 01:45:19;;;;;;;12.00;7.13;;;;;;;;;;6351921;22;20175;-92
2023/05/02 01:48:28;;;;;;;10.88;6.82;;;;;;;;;;6351102;22;20199;-92
2023/05/02 01:51:34;;;;;;;13.90;6.60;;;;;;;;;;6351753;22;20165;-91
2023/05/02 01:54:39;;;;;;;11.15;6.43;;;;;;;;;;6351157;22;20225;-91
2023/05/02 01:57:47;;;;;;;10.57;6.43;;;;;;;;;;6350087;22;20245;-92
2023/05/02 02:00:54;;;;;;;10.82;6.60;;;;;;;;;;6353039;22;20163;-93
2023/05/02 02:03:59;;;;;;;11.25;6.57;;;;;;;;;;6335561;22;20169;-92
2023/05/02 02:07:07;;;;;;;9.73;6.32;;;;;;;;;;6353812;22;20163;-90
2023/05/02 02:10:12;;;;;;;9.65;6.32;;;;;;;;;;6335622;22;20164;-93
2023/05/02 02:13:20;;;;;;;11.77;6.93;;;;;;;;;;6353098;22;20575;-92
2023/05/02 02:16:58;;;;;;;11.20;7.10;;;;;;;;;;6335018;22;20148;-92
2023/05/02 02:20:07;;;;;;;13.07;6.72;;;;;;;;;;6336262;22;20160;-91
2023/05/02 02:23:26;;;;;;;12.77;7.32;;;;;;;;;;6356898;22;20172;-91
2023/05/02 02:26:32;;;;;;;12.43;7.53;;;;;;;;;;6354329;22;20224;-90
2023/05/02 02:29:37;;;;;;;12.73;8.30;;;;;;;;;;6352233;22;20176;-92
2023/05/02 02:32:42;;;;;;;10.98;7.28;;;;;;;;;;6335315;22;20172;-92
2023/05/02 02:35:51;;;;;;;15.07;7.70;;;;;;;;;;6355132;22;20237;-90
2023/05/02 02:39:05;;;;;;;15.38;8.82;;;;;;;;;;6354856;22;20236;-92
2023/05/02 02:42:12;;;;;;;16.92;9.88;;;;;;;;;;6353641;22;20187;-91
2023/05/02 02:45:24;;;;;;;16.88;10.15;;;;;;;;;;6355663;22;20165;-91
2023/05/02 02:48:39;;;;;;;16.40;10.23;;;;;;;;;;6334192;22;20207;-93
2023/05/02 02:51:50;;;;;;;21.42;12.02;;;;;;;;;;6334757;22;20164;-90
2023/05/02 02:54:59;;;;;;;19.02;11.60;;;;;;;;;;6335119;22;20170;-89
2023/05/02 02:58:11;;;;;;;25.17;12.65;;;;;;;;;;6335217;22;20152;-90
2023/05/02 03:01:19;;;;;;;20.42;11.45;;;;;;;;;;6334290;22;20507;-92
2023/05/02 03:04:25;;;;;;;23.23;12.57;;;;;;;;;;6335326;22;20333;-93
2023/05/02 03:07:32;;;;;;;24.27;12.43;;;;;;;;;;6351879;22;20227;-92
2023/05/02 03:10:39;;;;;;;22.08;12.30;;;;;;;;;;6333477;22;20153;-90
2023/05/02 03:13:46;;;;;;;24.00;13.10;;;;;;;;;;6351882;22;20663;-90
2023/05/02 03:20:31;;;;;;;22.38;12.75;;;;;;;;;;6334768;22;20541;-90
2023/05/02 13:03:17;;;;;;;19.80;9.75;;;;;;;;;;6273340;22;20483;31
2023/05/02 13:06:26;;;;;;;17.33;10.43;;;;;;;;;;6246559;22;20753;-92
2023/05/02 13:09:31;;;;;;;16.10;10.85;;;;;;;;;;6247085;22;20190;-93
2023/05/02 13:12:37;;;;;;;17.67;10.20;;;;;;;;;;6246580;22;20212;-93
2023/05/02 13:15:51;;;;;;;14.65;10.02;;;;;;;;;;6247761;22;20227;-92
2023/05/02 13:18:56;;;;;;;15.05;9.60;;;;;;;;;;6245839;22;20190;-93
2023/05/02 13:22:03;;;;;;;14.40;9.35;;;;;;;;;;6245562;22;20625;-94
2023/05/02 13:25:09;;;;;;;13.35;8.45;;;;;;;;;;6244355;22;20190;-93
2023/05/02 13:28:16;;;;;;;15.88;9.38;;;;;;;;;;6243841;22;20187;-93
2023/05/02 13:31:21;;;;;;;13.27;8.98;;;;;;;;;;6242811;22;20510;-92
2023/05/02 13:34:27;;;;;;;22.63;10.18;;;;;;;;;;6244367;22;20243;-94
2023/05/02 13:37:36;;;;;;;14.75;9.52;;;;;;;;;;6243385;22;20266;-93
2023/05/02 13:40:42;;;;;;;18.83;10.00;;;;;;;;;;6245288;22;20163;-92
2023/05/02 13:43:47;;;;;;;25.00;10.50;;;;;;;;;;6245490;22;20217;-93
2023/05/02 13:47:11;;;;;;;15.98;8.63;;;;;;;;;;6244198;22;20146;-92
2023/05/02 13:50:18;;;;;;;26.95;9.50;;;;;;;;;;6245422;22;20159;-92
2023/05/02 13:53:25;;;;;;;19.20;9.43;;;;;;;;;;6246118;22;20170;-91
2023/05/02 13:56:30;;;;;;;19.73;9.75;;;;;;;;;;6242978;23;20166;-93
2023/05/02 13:59:35;;;;;;;14.43;8.15;;;;;;;;;;6243200;22;20190;-93
2023/05/02 14:02:41;;;;;;;20.15;10.25;;;;;;;;;;6244967;22;20190;-94
2023/05/02 14:05:47;;;;;;;20.58;10.48;;;;;;;;;;6244652;22;20182;-90
2023/05/02 14:08:57;;;;;;;17.30;9.45;;;;;;;;;;6247525;22;20190;-93
2023/05/02 14:12:07;;;;;;;13.40;8.88;;;;;;;;;;6247268;22;20209;-94
2023/05/02 14:15:13;;;;;;;17.00;9.85;;;;;;;;;;6230366;22;20199;-93
2023/05/02 14:18:19;;;;;;;15.77;9.43;;;;;;;;;;6246346;22;20171;-93
2023/05/02 14:21:24;;;;;;;13.05;8.23;;;;;;;;;;6247479;22;20214;-92
2023/05/02 14:24:36;;;;;;;13.98;7.13;;;;;;;;;;6246826;22;20617;-92
2023/05/02 14:27:44;;;;;;;12.43;7.30;;;;;;;;;;6245897;22;20170;-94
2023/05/02 14:30:55;;;;;;;12.93;8.63;;;;;;;;;;6245557;22;20186;-93
2023/05/02 14:34:04;;;;;;;13.38;6.50;;;;;;;;;;6246502;22;20159;-94
2023/05/02 14:37:12;;;;;;;6.47;4.00;;;;;;;;;;6244593;22;20174;-95
2023/05/02 14:43:44;;;;;;;9.15;4.60;;;;;;;;;;6248613;22;20182;-94
2023/05/02 14:47:18;;;;;;;8.40;4.28;;;;;;;;;;6242266;22;20246;-92
2023/05/02 14:50:26;;;;;;;8.60;4.53;;;;;;;;;;6243430;22;20713;-91
2023/05/02 14:53:34;;;;;;;5.50;3.85;;;;;;;;;;6242013;22;20166;-91
2023/05/02 14:56:41;;;;;;;6.10;3.83;;;;;;;;;;6246100;22;20151;-93
2023/05/02 15:00:01;;;;;;;5.70;3.80;;;;;;;;;;6246083;22;20249;-93
2023/05/02 15:03:09;;;;;;;6.05;4.00;;;;;;;;;;6242128;22;20189;-93
2023/05/02 15:06:18;;;;;;;5.85;4.10;;;;;;;;;;6244212;22;20246;-91
2023/05/02 15:09:25;;;;;;;5.68;3.90;;;;;;;;;;6243356;22;20263;-92
2023/05/02 15:12:31;;;;;;;6.93;4.03;;;;;;;;;;6246336;22;20184;-92
2023/05/02 15:15:38;;;;;;;7.05;4.28;;;;;;;;;;6246440;22;20166;-93
2023/05/02 15:18:51;;;;;;;5.57;3.40;;;;;;;;;;6243478;22;20233;-92
2023/05/02 15:21:57;;;;;;;6.43;4.10;;;;;;;;;;6245339;22;20158;-92
2023/05/02 15:25:03;;;;;;;7.07;3.53;;;;;;;;;;6244118;22;20239;-92
2023/05/02 15:28:09;;;;;;;8.15;3.83;;;;;;;;;;6245678;22;20166;-92
2023/05/02 15:31:18;;;;;;;6.35;4.07;;;;;;;;;;6244613;22;20166;-93
2023/05/02 15:34:27;;;;;;;5.93;4.00;;;;;;;;;;6240945;22;20174;-91
2023/05/02 15:37:31;;;;;;;7.57;3.92;;;;;;;;;;6242826;22;20167;-93
2023/05/02 15:40:39;;;;;;;6.35;4.07;;;;;;;;;;6242371;22;20237;-92
2023/05/02 15:43:47;;;;;;;6.28;4.25;;;;;;;;;;6243849;22;20174;-94
2023/05/02 15:50:16;;;;;;;11.38;5.03;;;;;;;;;;6247968;22;20214;-94
2023/05/02 15:53:23;;;;;;;9.95;6.30;;;;;;;;;;6243888;22;20565;-94
2023/05/02 15:56:32;;;;;;;11.10;6.03;;;;;;;;;;6245353;22;20186;-91
2023/05/02 15:59:38;;;;;;;7.38;5.03;;;;;;;;;;6245794;22;20201;-92
2023/05/02 16:02:43;;;;;;;8.65;6.07;;;;;;;;;;6247026;22;20656;-93
2023/05/02 16:05:53;;;;;;;12.25;6.30;;;;;;;;;;6261886;22;20186;-93
2023/05/02 16:08:58;;;;;;;11.95;6.97;;;;;;;;;;6260849;22;20194;-94
2023/05/02 16:12:07;;;;;;;14.43;8.65;;;;;;;;;;6260646;22;20158;-94
2023/05/02 18:39:00;;;;;;;11.10;5.18;;;;;;;;;;6328137;22;20284;-88
2023/05/02 18:45:28;;;;;;;8.90;5.30;;;;;;;;;;6328722;22;20176;-88
2023/05/02 18:48:42;;;;;;;7.95;5.60;;;;;;;;;;6330146;22;20169;-88
2023/05/02 18:51:47;;;;;;;7.55;4.90;;;;;;;;;;6332741;22;20172;-88
2023/05/02 18:54:54;;;;;;;7.85;5.68;;;;;;;;;;6350490;22;20523;-88
2023/05/02 18:57:59;;;;;;;10.00;5.03;;;;;;;;;;6330598;22;20171;-88
2023/05/02 19:01:13;;;;;;;10.00;6.03;;;;;;;;;;6328857;22;20167;-88
2023/05/02 19:04:18;;;;;;;8.27;5.40;;;;;;;;;;6348799;22;20188;-88
2023/05/02 19:07:24;;;;;;;9.85;5.03;;;;;;;;;;6362967;22;20207;-88
2023/05/02 19:10:32;;;;;;;12.63;5.35;;;;;;;;;;6361142;22;20191;-88
2023/05/02 23:55:43;;;;;;;14.68;8.68;;;;;;;;;;6305616;22;20548;-92
2023/05/02 23:58:48;;;;;;;20.52;10.15;;;;;;;;;;6336846;22;20500;-94
